Time;durP1;ratioP1;P1;durP2;ratioP2;P2;SDS_P1;SDS_P2;PMS_P1;PMS_P2;Temp;Humidity;BMP_temperature;BMP_pressure;BME280_temperature;BME280_humidity;BME280_pressure;Samples;Min_cycle;Max_cycle;Signal;HPM_P1;HPM_P2
2022/10/25 00:02:17;;;;;;;3.62;2.70;;;;;;;16.94;76.24;99299.22;4347812;33;34652;-74
2022/10/25 00:04:46;;;;;;;11.07;3.78;;;;;;;16.63;78.12;99308.22;4322401;33;33836;-74
2022/10/25 00:07:14;;;;;;;3.55;3.25;;;;;;;16.55;78.50;99312.88;4347937;33;34566;-74
2022/10/25 00:09:41;;;;;;;4.53;3.83;;;;;;;16.35;79.67;99314.44;4347769;33;34256;-72
2022/10/25 00:12:10;;;;;;;5.65;5.07;;;;;;;16.67;78.52;99322.97;4347672;33;34025;-72
2022/10/25 00:14:38;;;;;;;4.30;3.92;;;;;;;16.58;78.51;99333.81;4347752;33;35002;-72
2022/10/25 00:17:05;;;;;;;8.70;6.47;;;;;;;16.85;77.55;99342.50;4348981;33;34409;-73
2022/10/25 00:19:34;;;;;;;5.62;5.12;;;;;;;16.65;78.44;99346.69;4336518;33;33616;-73
2022/10/25 00:22:02;;;;;;;6.47;3.42;;;;;;;16.85;77.76;99343.38;4349623;33;33994;-74
2022/10/25 00:24:30;;;;;;;6.53;5.80;;;;;;;17.17;76.40;99335.19;4336201;33;35089;-72
2022/10/25 00:26:58;;;;;;;2.75;2.55;;;;;;;16.96;76.91;99334.22;4349623;33;35216;-74
2022/10/25 00:29:26;;;;;;;4.05;3.10;;;;;;;17.47;74.77;99333.16;4349515;33;34466;-73
2022/10/25 00:31:54;;;;;;;2.25;2.05;;;;;;;17.04;76.56;99332.16;4349637;33;34018;-73
2022/10/25 00:34:22;;;;;;;3.97;3.22;;;;;;;16.88;77.42;99334.50;4349478;33;36018;-71
2022/10/25 00:36:50;;;;;;;3.33;2.33;;;;;;;17.12;76.39;99331.88;4349511;33;35200;-72
2022/10/25 00:39:18;;;;;;;6.80;4.12;;;;;;;16.96;77.94;99329.84;4349595;33;34196;-71
2022/10/25 00:41:46;;;;;;;2.85;2.37;;;;;;;17.15;76.83;99327.34;4349346;33;34637;-74
2022/10/25 00:44:39;;;;;;;5.37;3.62;;;;;;;17.17;76.62;99328.16;4336205;33;36044;-75
2022/10/25 00:47:10;;;;;;;5.28;4.78;;;;;;;16.60;79.05;99337.25;4349543;33;35218;-73
2022/10/25 00:49:38;;;;;;;6.32;3.97;;;;;;;16.71;78.92;99350.84;4349580;33;33535;-74
2022/10/25 00:52:06;;;;;;;3.17;2.55;;;;;;;16.54;80.19;99348.00;4349458;33;33859;-74
2022/10/25 00:54:40;;;;;;;7.45;3.67;;;;;;;16.72;79.38;99347.31;4349439;33;35180;-74
2022/10/25 00:57:12;;;;;;;4.60;2.83;;;;;;;16.48;80.28;99355.19;4336205;33;34525;-74
2022/10/25 00:59:41;;;;;;;7.85;4.97;;;;;;;16.71;79.44;99355.25;4336257;33;33557;-73
2022/10/25 01:02:10;;;;;;;5.72;3.78;;;;;;;16.87;78.37;99356.44;4336205;33;34731;-74
2022/10/25 01:04:38;;;;;;;2.90;2.12;;;;;;;16.70;78.52;99366.72;4336014;33;35113;-74
2022/10/25 01:07:06;;;;;;;6.07;5.28;;;;;;;16.77;78.39;99363.78;4336037;33;34406;-74
2022/10/25 01:09:35;;;;;;;7.45;5.80;;;;;;;17.02;77.64;99371.69;4349440;33;33423;-74
2022/10/25 01:12:03;;;;;;;2.80;2.60;;;;;;;16.75;78.36;99367.41;4335994;33;33729;-74
2022/10/25 01:14:39;;;;;;;4.50;3.53;;;;;;;16.67;79.12;99360.63;4331159;33;185717;-74
2022/10/25 01:17:50;;;;;;;4.72;3.45;;;;;;;16.80;78.18;99366.31;4336374;33;35216;-74
2022/10/25 01:20:49;;;;;;;2.80;2.53;;;;;;;16.92;77.86;99357.12;4276936;33;33546;-74
2022/10/25 01:23:57;;;;;;;7.78;3.67;;;;;;;16.60;79.80;99353.00;4288621;33;33875;-72
2022/10/25 01:26:45;;;;;;;5.15;4.65;;;;;;;16.48;79.95;99359.56;4336017;33;34579;-73
2022/10/25 01:29:27;;;;;;;2.37;2.25;;;;;;;16.80;79.09;99355.81;4335470;33;35209;-73
2022/10/25 01:32:12;;;;;;;3.60;3.28;;;;;;;16.62;79.68;99349.44;4349136;33;33448;-73
2022/10/25 01:34:53;;;;;;;2.03;1.92;;;;;;;16.73;80.23;99353.44;4349116;33;33800;-73
2022/10/25 01:37:34;;;;;;;2.08;1.92;;;;;;;16.47;81.52;99353.44;4336022;33;35089;-71
2022/10/25 01:40:16;;;;;;;5.95;3.30;;;;;;;16.68;81.59;99340.47;4349213;33;35099;-71
2022/10/25 01:43:18;;;;;;;3.17;2.87;;;;;;;16.44;83.37;99353.53;4335859;33;33415;-74
2022/10/25 01:45:50;;;;;;;4.15;2.72;;;;;;;16.42;83.96;99350.12;4335748;33;33991;-74
2022/10/25 01:48:23;;;;;;;10.75;3.47;;;;;;;16.58;83.17;99347.81;4349353;33;34959;-73
2022/10/25 01:50:51;;;;;;;2.85;2.53;;;;;;;16.94;81.13;99351.81;4348985;33;35160;-73
2022/10/25 01:53:19;;;;;;;5.75;3.72;;;;;;;16.70;82.19;99332.53;4335836;33;33298;-72
2022/10/25 01:55:54;;;;;;;2.37;2.15;;;;;;;16.70;82.85;99332.53;4349000;33;33868;-73
2022/10/25 01:58:45;;;;;;;3.42;2.47;;;;;;;16.91;81.58;99338.81;4335902;33;35130;-73
2022/10/25 02:01:19;;;;;;;16.42;4.47;;;;;;;16.65;82.75;99336.16;4335642;33;34470;-72
2022/10/25 02:04:10;;;;;;;4.10;3.67;;;;;;;16.55;83.59;99329.50;4349079;33;33385;-73
2022/10/25 02:06:46;;;;;;;4.57;2.97;;;;;;;16.80;82.53;99328.63;4349228;33;34865;-74
2022/10/25 02:09:22;;;;;;;3.33;1.70;;;;;;;16.68;83.07;99324.69;4335756;33;35100;-73
2022/10/25 02:11:51;;;;;;;3.90;3.10;;;;;;;16.93;82.39;99334.34;4335398;33;32889;-73
2022/10/25 02:14:43;;;;;;;1.98;1.87;;;;;;;16.74;82.66;99334.12;4335666;33;33751;-73
2022/10/25 02:17:15;;;;;;;3.60;3.25;;;;;;;16.85;82.31;99337.25;4348415;33;34620;-72
2022/10/25 02:19:48;;;;;;;1.85;1.75;;;;;;;17.04;81.14;99337.44;4348985;33;35842;-72
2022/10/25 02:22:18;;;;;;;1.48;1.42;;;;;;;16.99;81.02;99336.75;4335594;33;34434;-71
2022/10/25 02:24:48;;;;;;;1.30;1.30;;;;;;;17.01;80.86;99340.16;4335689;33;33454;-73
2022/10/25 02:27:17;;;;;;;3.25;2.85;;;;;;;16.83;81.43;99339.03;4348954;33;33212;-72
2022/10/25 02:29:46;;;;;;;2.50;2.30;;;;;;;17.12;81.31;99330.13;4348763;33;34929;-73
2022/10/25 02:32:14;;;;;;;1.98;1.87;;;;;;;16.83;82.74;99323.25;4348721;33;35234;-73
2022/10/25 02:34:46;;;;;;;5.28;3.72;;;;;;;17.17;80.88;99322.03;4335530;33;34199;-72
2022/10/25 02:37:14;;;;;;;1.65;1.33;;;;;;;17.04;81.22;99326.91;4348791;33;33970;-72
2022/10/25 02:39:43;;;;;;;1.62;1.52;;;;;;;17.23;80.72;99327.91;4348503;33;35034;-73
2022/10/25 02:42:11;;;;;;;2.72;1.95;;;;;;;16.82;83.20;99343.44;4335509;33;34416;-74
2022/10/25 02:44:39;;;;;;;5.55;4.12;;;;;;;16.67;84.27;99338.75;4348654;33;34271;-71
2022/10/25 02:47:07;;;;;;;1.35;1.25;;;;;;;16.81;83.73;99339.09;4348759;33;33823;-72
2022/10/25 02:49:35;;;;;;;4.57;3.60;;;;;;;16.93;82.98;99329.09;4348668;33;35064;-73
2022/10/25 02:52:03;;;;;;;2.17;1.60;;;;;;;16.35;86.33;99347.75;4348642;33;34487;-73
2022/10/25 02:54:31;;;;;;;2.30;2.10;;;;;;;16.55;85.00;99342.66;4348668;33;33441;-73
2022/10/25 02:56:59;;;;;;;3.60;3.30;;;;;;;16.49;85.82;99338.47;4348605;33;33837;-73
2022/10/25 02:59:28;;;;;;;2.53;2.33;;;;;;;16.57;85.35;99347.84;4348507;33;35946;-73
2022/10/25 03:01:56;;;;;;;2.30;1.83;;;;;;;16.58;85.24;99337.28;4348404;33;35192;-72
2022/10/25 03:04:24;;;;;;;3.80;2.92;;;;;;;16.32;85.83;99337.34;4348585;33;33656;-73
2022/10/25 03:06:52;;;;;;;1.50;1.40;;;;;;;16.52;84.22;99344.53;4348680;33;34784;-73
2022/10/25 03:09:21;;;;;;;2.20;2.00;;;;;;;16.39;84.84;99339.69;4334997;33;33745;-74
2022/10/25 03:11:49;;;;;;;2.17;1.65;;;;;;;16.33;85.33;99350.44;4348432;33;35263;-72
2022/10/25 03:14:16;;;;;;;1.52;1.42;;;;;;;16.70;83.09;99341.25;4348724;33;34274;-72
2022/10/25 03:16:45;;;;;;;3.62;1.90;;;;;;;16.50;84.76;99357.75;4329895;33;33983;-73
2022/10/25 03:19:17;;;;;;;0.50;0.50;;;;;;;16.56;84.46;99349.62;4329540;33;34995;-73
2022/10/25 03:21:46;;;;;;;1.45;1.35;;;;;;;16.29;85.85;99338.31;4319058;33;34566;-74
2022/10/25 03:24:14;;;;;;;3.40;2.20;;;;;;;16.21;86.36;99337.72;4305914;33;31873;-73
2022/10/25 03:26:42;;;;;;;2.08;1.23;;;;;;;16.27;85.66;99337.50;4318926;33;34028;-74
2022/10/25 03:29:10;;;;;;;4.72;3.08;;;;;;;16.11;86.26;99345.03;4318860;33;35033;-74
2022/10/25 03:31:38;;;;;;;1.50;1.40;;;;;;;16.24;85.87;99350.75;4318905;33;34528;-73
2022/10/25 03:34:06;;;;;;;4.32;1.17;;;;;;;16.21;86.70;99362.22;4319015;33;34285;-73
2022/10/25 03:36:35;;;;;;;1.25;1.15;;;;;;;16.46;84.35;99361.37;4318801;33;34711;-72
2022/10/25 03:39:02;;;;;;;1.25;1.15;;;;;;;16.25;85.66;99357.72;4318872;33;35145;-72
2022/10/25 03:41:30;;;;;;;1.30;1.20;;;;;;;16.08;86.25;99351.25;4318861;33;35156;-72
2022/10/25 03:43:58;;;;;;;1.62;1.52;;;;;;;16.08;86.38;99351.25;4319108;33;34334;-73
2022/10/25 03:46:26;;;;;;;1.00;0.90;;;;;;;16.33;84.69;99362.72;4318702;33;34013;-72
2022/10/25 03:48:54;;;;;;;1.12;1.10;;;;;;;15.97;86.74;99366.53;4318657;33;35912;-73
2022/10/25 03:51:22;;;;;;;2.05;1.85;;;;;;;15.99;86.77;99358.56;4317884;33;34368;-73
2022/10/25 03:53:50;;;;;;;1.67;1.52;;;;;;;16.20;85.80;99350.00;4318712;33;33108;-73
2022/10/25 03:56:18;;;;;;;2.97;1.92;;;;;;;16.25;85.00;99340.19;4318680;33;33965;-73
2022/10/25 03:58:46;;;;;;;2.53;2.35;;;;;;;15.96;86.48;99343.78;4318629;33;35203;-73
2022/10/25 04:01:14;;;;;;;1.05;1.05;;;;;;;16.46;83.96;99341.19;4317384;33;35183;-72
2022/10/25 04:03:44;;;;;;;1.17;1.10;;;;;;;16.35;84.32;99348.59;4318608;33;33400;-74
2022/10/25 04:06:12;;;;;;;1.50;1.40;;;;;;;16.24;84.77;99346.34;4318287;33;33930;-73
2022/10/25 04:08:39;;;;;;;1.42;1.33;;;;;;;16.28;84.51;99341.84;4318489;33;35928;-72
2022/10/25 04:11:08;;;;;;;2.62;1.27;;;;;;;16.13;85.48;99348.50;4318429;33;35327;-73
2022/10/25 04:13:36;;;;;;;2.55;1.50;;;;;;;16.20;84.77;99346.50;4316427;33;34136;-70
2022/10/25 04:16:07;;;;;;;1.05;0.93;;;;;;;16.39;84.43;99355.47;4328763;33;34909;-72
2022/10/25 04:18:36;;;;;;;1.65;1.55;;;;;;;16.37;84.33;99353.81;4317147;33;35153;-72
2022/10/25 04:21:04;;;;;;;0.77;0.77;;;;;;;16.44;82.86;99348.28;4318065;33;35509;-71
2022/10/25 04:23:32;;;;;;;3.55;1.52;;;;;;;16.55;82.58;99344.44;4316937;33;33746;-72
2022/10/25 04:26:00;;;;;;;2.03;1.83;;;;;;;16.84;81.25;99351.31;4318213;33;34731;-72
2022/10/25 04:28:28;;;;;;;3.55;3.25;;;;;;;16.58;81.39;99349.59;4316783;33;34655;-72
2022/10/25 04:30:56;;;;;;;1.35;1.30;;;;;;;16.73;81.32;99349.06;4328805;33;35275;-73
2022/10/25 04:33:24;;;;;;;1.12;1.10;;;;;;;16.78;80.72;99355.00;4317916;33;33695;-71
2022/10/25 04:35:56;;;;;;;1.10;1.00;;;;;;;16.42;82.12;99357.16;4317845;33;33882;-73
2022/10/25 04:38:24;;;;;;;4.30;3.25;;;;;;;16.62;82.27;99345.94;4317835;33;35037;-73
2022/10/25 04:40:56;;;;;;;1.73;1.62;;;;;;;16.37;82.90;99359.91;4317766;33;34357;-74
2022/10/25 04:43:26;;;;;;;2.17;2.08;;;;;;;16.46;82.79;99351.72;4316770;33;33692;-74
2022/10/25 04:45:54;;;;;;;2.70;2.50;;;;;;;16.62;82.15;99361.69;4317585;33;34157;-72
2022/10/25 04:48:22;;;;;;;2.03;1.87;;;;;;;16.59;82.03;99356.53;4317702;33;35994;-71
2022/10/25 04:50:50;;;;;;;2.92;2.67;;;;;;;16.72;81.41;99352.56;4317635;33;35173;-71
2022/10/25 04:53:18;;;;;;;2.42;2.15;;;;;;;16.77;80.76;99350.66;4317782;33;33556;-71
2022/10/25 04:56:00;;;;;;;2.55;2.37;;;;;;;16.79;80.79;99354.06;4317502;33;34094;-71
2022/10/25 04:58:28;;;;;;;0.75;0.75;;;;;;;16.60;82.13;99359.13;4316525;33;35999;-72
2022/10/25 05:01:00;;;;;;;1.20;1.12;;;;;;;16.38;82.77;99353.78;4317455;33;34354;-73
2022/10/25 05:03:29;;;;;;;0.52;0.52;;;;;;;16.54;81.98;99364.59;4318517;33;32488;-72
2022/10/25 05:06:14;;;;;;;3.00;1.67;;;;;;;16.26;82.84;99359.44;4319541;33;34803;-72
2022/10/25 05:08:44;;;;;;;3.62;1.08;;;;;;;15.95;84.91;99360.44;4318617;33;35462;-71
2022/10/25 05:11:13;;;;;;;1.90;1.80;;;;;;;16.16;83.73;99363.28;4319634;33;35141;-72
2022/10/25 05:13:43;;;;;;;1.60;1.50;;;;;;;16.55;82.06;99350.53;4330561;33;33372;-72
2022/10/25 05:16:23;;;;;;;2.30;1.67;;;;;;;16.18;83.20;99350.94;4338140;33;33610;-70
2022/10/25 05:18:54;;;;;;;0.88;0.88;;;;;;;16.35;82.51;99347.75;4336101;33;36013;-73
2022/10/25 05:21:27;;;;;;;2.55;2.12;;;;;;;16.33;82.43;99355.69;4323548;33;33075;-72
2022/10/25 05:23:57;;;;;;;0.77;0.77;;;;;;;16.08;83.45;99346.00;4336315;33;34199;-72
2022/10/25 05:26:29;;;;;;;2.70;2.08;;;;;;;16.32;81.98;99368.87;4336286;33;34703;-73
2022/10/25 05:28:58;;;;;;;1.92;1.80;;;;;;;16.57;80.99;99372.41;4335906;33;35988;-73
2022/10/25 05:31:28;;;;;;;0.80;0.80;;;;;;;16.42;81.71;99381.66;4349034;33;34535;-72
2022/10/25 05:33:59;;;;;;;0.45;0.45;;;;;;;16.30;82.17;99388.16;4349267;33;33856;-71
2022/10/25 05:36:28;;;;;;;1.25;1.15;;;;;;;16.56;80.92;99398.72;4349098;33;34074;-71
2022/10/25 05:38:57;;;;;;;1.83;1.73;;;;;;;16.32;82.52;99403.03;4349167;33;35714;-72
2022/10/25 05:41:25;;;;;;;0.57;0.57;;;;;;;16.55;81.25;99412.78;4349057;33;34457;-72
2022/10/25 05:43:56;;;;;;;1.25;1.15;;;;;;;15.96;84.51;99414.69;4336063;33;33414;-72
2022/10/25 05:46:24;;;;;;;1.30;1.25;;;;;;;16.68;80.41;99428.09;4349012;33;34748;-72
2022/10/25 05:48:52;;;;;;;1.50;1.40;;;;;;;16.49;80.66;99440.97;4335723;33;34941;-73
2022/10/25 05:51:23;;;;;;;1.40;1.12;;;;;;;16.53;80.91;99443.53;4349012;33;34553;-73
2022/10/25 05:54:11;;;;;;;1.87;1.37;;;;;;;16.65;80.73;99445.72;4337618;33;33399;-73
2022/10/25 05:56:40;;;;;;;4.78;1.20;;;;;;;16.76;79.98;99442.72;4335845;33;34762;-72
2022/10/25 05:59:10;;;;;;;1.83;1.00;;;;;;;16.60;80.71;99432.72;4348894;33;35023;-72
2022/10/25 06:01:40;;;;;;;1.80;1.67;;;;;;;16.57;80.33;99437.22;4349216;33;34591;-72
2022/10/25 06:04:09;;;;;;;0.77;0.77;;;;;;;16.54;80.15;99432.97;4349001;33;33433;-72
2022/10/25 06:06:38;;;;;;;1.25;1.10;;;;;;;16.38;81.19;99437.87;4335697;33;33783;-72
2022/10/25 06:09:07;;;;;;;1.12;1.00;;;;;;;16.73;79.71;99443.72;4335618;33;35012;-71
2022/10/25 06:11:36;;;;;;;2.25;1.62;;;;;;;16.45;80.46;99449.88;4348773;33;34438;-72
2022/10/25 06:14:04;;;;;;;2.05;1.87;;;;;;;16.34;80.81;99454.66;4335270;33;33543;-72
2022/10/25 06:16:32;;;;;;;1.65;1.55;;;;;;;16.89;78.58;99458.97;4348721;33;33712;-73
2022/10/25 06:19:01;;;;;;;1.48;1.27;;;;;;;16.81;78.88;99462.69;4348882;33;35014;-73
2022/10/25 06:21:29;;;;;;;1.85;1.48;;;;;;;16.92;77.32;99477.28;4348863;33;35336;-72
2022/10/25 06:23:58;;;;;;;0.65;0.65;;;;;;;16.53;78.72;99482.94;4335712;33;33676;-71
2022/10/25 06:26:28;;;;;;;1.27;1.20;;;;;;;16.69;78.01;99484.16;4348703;33;34878;-72
2022/10/25 06:28:58;;;;;;;0.57;0.57;;;;;;;16.47;78.48;99494.53;4348967;33;35197;-73
2022/10/25 06:31:27;;;;;;;2.45;1.85;;;;;;;16.51;79.34;99495.28;4335537;33;33731;-72
2022/10/25 06:33:55;;;;;;;1.62;0.90;;;;;;;16.70;78.47;99506.06;4335308;33;33556;-71
2022/10/25 06:36:25;;;;;;;2.47;2.30;;;;;;;16.67;78.60;99512.25;4348403;33;33992;-72
2022/10/25 06:38:53;;;;;;;1.00;1.00;;;;;;;17.28;75.91;99498.81;4335463;33;35385;-73
2022/10/25 06:41:26;;;;;;;0.88;0.88;;;;;;;16.77;78.50;99492.66;4335383;33;34522;-73
2022/10/25 06:43:55;;;;;;;1.80;1.70;;;;;;;17.02;76.71;99491.84;4335951;33;33457;-73
2022/10/25 06:46:33;;;;;;;1.10;1.10;;;;;;;17.16;75.51;99489.59;4348613;33;33928;-72
2022/10/25 06:49:11;;;;;;;2.03;1.80;;;;;;;17.16;74.77;99494.84;4348708;33;35049;-73
2022/10/25 06:51:38;;;;;;;0.93;0.93;;;;;;;17.32;73.65;99496.94;4348649;33;34404;-72
2022/10/25 06:54:08;;;;;;;2.47;1.12;;;;;;;17.33;73.58;99490.75;4348565;33;33010;-73
2022/10/25 06:56:36;;;;;;;0.30;0.30;;;;;;;17.18;74.21;99486.91;4335537;33;33856;-71
2022/10/25 06:59:06;;;;;;;2.62;0.90;;;;;;;17.05;74.63;99482.06;4348623;33;35983;-73
2022/10/25 07:01:33;;;;;;;1.25;1.15;;;;;;;17.09;75.14;99484.59;4348636;33;35121;-72
2022/10/25 07:04:02;;;;;;;0.50;0.50;;;;;;;17.42;73.86;99480.75;4348576;33;33527;-73
2022/10/25 07:06:36;;;;;;;1.62;1.17;;;;;;;17.66;72.87;99487.78;4348466;33;33879;-73
2022/10/25 07:09:07;;;;;;;1.52;1.17;;;;;;;17.51;73.57;99489.25;4335176;33;33609;-73
2022/10/25 07:11:36;;;;;;;1.15;1.05;;;;;;;17.17;75.42;99495.69;4348555;33;34315;-72
2022/10/25 07:14:04;;;;;;;2.08;1.62;;;;;;;17.56;74.18;99493.41;4348475;33;33604;-72
2022/10/25 07:16:32;;;;;;;1.50;1.40;;;;;;;16.91;77.30;99499.25;4348513;33;33648;-73
2022/10/25 07:19:02;;;;;;;1.37;0.80;;;;;;;17.54;74.85;99500.50;4348432;33;35955;-73
2022/10/25 07:21:31;;;;;;;1.40;1.08;;;;;;;17.08;77.12;99494.25;4335202;33;34302;-73
2022/10/25 07:23:59;;;;;;;2.17;1.65;;;;;;;17.40;75.96;99510.66;4335193;33;34114;-72
2022/10/25 07:26:34;;;;;;;1.52;1.42;;;;;;;17.90;73.79;99513.25;4347310;33;34890;-73
2022/10/25 07:29:03;;;;;;;0.98;0.98;;;;;;;17.66;74.77;99511.50;4335245;33;35133;-73
2022/10/25 07:31:36;;;;;;;0.88;0.88;;;;;;;17.59;74.75;99511.75;4348259;33;35040;-72
2022/10/25 07:34:05;;;;;;;1.77;1.60;;;;;;;17.74;73.69;99514.72;4335204;33;33456;-72
2022/10/25 07:36:33;;;;;;;2.67;2.10;;;;;;;17.70;73.49;99521.87;4348185;33;34043;-73
2022/10/25 07:39:01;;;;;;;0.70;0.70;;;;;;;17.89;72.15;99522.06;4348203;33;35956;-72
2022/10/25 07:41:29;;;;;;;0.85;0.85;;;;;;;17.76;72.65;99526.06;4348506;33;34449;-72
2022/10/25 07:43:58;;;;;;;1.27;1.17;;;;;;;17.80;72.47;99522.38;4348203;33;33467;-72
2022/10/25 07:46:25;;;;;;;0.75;0.75;;;;;;;17.67;73.55;99526.41;4348230;33;34710;-73
2022/10/25 07:48:54;;;;;;;2.75;2.25;;;;;;;17.63;73.56;99521.22;4347998;33;35202;-73
2022/10/25 07:51:22;;;;;;;1.12;1.00;;;;;;;17.82;73.44;99531.06;4348124;33;34475;-72
2022/10/25 07:53:51;;;;;;;1.75;1.65;;;;;;;17.74;73.45;99535.78;4348191;33;33529;-72
2022/10/25 07:56:20;;;;;;;0.40;0.40;;;;;;;18.21;72.32;99532.28;4348092;33;33963;-71
2022/10/25 07:58:51;;;;;;;0.60;0.60;;;;;;;18.16;72.35;99535.13;4347916;33;34930;-72
2022/10/25 08:01:21;;;;;;;2.80;2.33;;;;;;;18.42;71.48;99535.84;4334732;33;34466;-72
2022/10/25 08:03:51;;;;;;;4.12;3.10;;;;;;;18.14;72.84;99545.72;4334769;33;33457;-73
2022/10/25 08:06:20;;;;;;;1.02;0.88;;;;;;;18.36;71.98;99542.22;4348141;33;34783;-75
2022/10/25 08:08:49;;;;;;;2.78;2.37;;;;;;;18.49;71.27;99532.03;4334475;33;34951;-72
2022/10/25 08:11:17;;;;;;;5.37;1.52;;;;;;;18.56;71.16;99536.16;4347763;33;35118;-73
2022/10/25 08:13:47;;;;;;;1.45;1.35;;;;;;;18.36;71.02;99537.81;4347885;33;34233;-72
2022/10/25 08:16:15;;;;;;;1.27;1.23;;;;;;;18.47;71.14;99533.88;4347647;33;33208;-73
2022/10/25 08:18:44;;;;;;;1.87;1.77;;;;;;;17.99;73.56;99536.59;4347702;33;35364;-73
2022/10/25 08:21:12;;;;;;;1.83;1.15;;;;;;;18.22;71.83;99534.00;4334439;33;35298;-71
2022/10/25 08:23:40;;;;;;;1.58;1.48;;;;;;;18.16;72.39;99530.69;4347757;33;33420;-73
2022/10/25 08:26:08;;;;;;;1.20;1.20;;;;;;;17.62;74.82;99542.34;4347597;33;33676;-72
2022/10/25 08:28:36;;;;;;;1.70;1.60;;;;;;;17.76;74.67;99547.12;4347497;33;35986;-73
2022/10/25 08:31:04;;;;;;;0.93;0.93;;;;;;;17.83;74.17;99530.16;4347616;33;35011;-72
2022/10/25 08:33:33;;;;;;;1.52;1.42;;;;;;;18.11;72.78;99531.78;4347509;33;34149;-73
2022/10/25 08:36:02;;;;;;;1.48;1.05;;;;;;;18.26;72.64;99536.44;4334321;33;33765;-73
2022/10/25 08:38:30;;;;;;;0.93;0.93;;;;;;;18.12;73.27;99534.34;4349034;33;35886;-73
2022/10/25 08:41:13;;;;;;;6.28;1.73;;;;;;;18.44;71.01;99544.56;4349573;33;35345;-71
2022/10/25 08:44:14;;;;;;;1.48;1.20;;;;;;;18.34;72.21;99550.19;4349611;33;33437;-73
2022/10/25 08:46:57;;;;;;;1.08;1.08;;;;;;;18.10;73.06;99530.91;4346785;33;33946;-72
2022/10/25 08:49:50;;;;;;;1.98;1.55;;;;;;;18.10;73.03;99540.59;4349534;33;34991;-73
2022/10/25 08:52:38;;;;;;;1.73;1.62;;;;;;;18.10;72.64;99545.88;4349483;33;34572;-71
2022/10/25 08:55:13;;;;;;;0.55;0.55;;;;;;;18.42;71.69;99551.66;4349560;33;33543;-71
2022/10/25 08:57:45;;;;;;;0.60;0.60;;;;;;;18.11;73.75;99552.88;4336337;33;34020;-73
2022/10/25 09:00:21;;;;;;;1.55;1.37;;;;;;;18.23;72.46;99551.53;4336433;33;35043;-73
2022/10/25 09:02:53;;;;;;;0.85;0.82;;;;;;;18.67;70.20;99556.81;4349478;33;34637;-71
2022/10/25 09:06:07;;;;;;;0.98;0.98;;;;;;;18.70;70.40;99573.38;4349575;33;33524;-73
2022/10/25 09:09:03;;;;;;;0.50;0.50;;;;;;;18.94;69.60;99565.41;4276930;33;33686;-73
2022/10/25 09:11:53;;;;;;;1.65;1.52;;;;;;;18.94;69.84;99565.41;4285366;33;35123;-73
2022/10/25 09:14:36;;;;;;;0.77;0.77;;;;;;;18.73;71.38;99562.69;4342305;33;35210;-72
2022/10/25 09:17:15;;;;;;;1.75;1.42;;;;;;;18.87;70.15;99562.16;4349209;33;34234;-71
2022/10/25 09:20:06;;;;;;;0.47;0.47;;;;;;;18.98;69.64;99569.63;4349351;33;33935;-73
2022/10/25 09:22:48;;;;;;;2.30;1.08;;;;;;;19.25;67.77;99566.75;4349295;33;35808;-73
2022/10/25 09:25:20;;;;;;;0.52;0.52;;;;;;;18.86;68.80;99572.78;4336102;33;34191;-73
2022/10/25 09:27:58;;;;;;;1.15;0.98;;;;;;;18.60;69.03;99563.25;4349218;33;33322;-71
2022/10/25 09:30:27;;;;;;;0.75;0.75;;;;;;;18.82;68.91;99563.28;4336058;33;34779;-73
2022/10/25 09:33:00;;;;;;;0.52;0.52;;;;;;;19.09;67.73;99562.12;4349182;33;35166;-73
2022/10/25 09:35:34;;;;;;;0.80;0.80;;;;;;;18.81;69.29;99564.16;4336179;33;34283;-72
2022/10/25 09:38:17;;;;;;;3.08;2.33;;;;;;;18.49;70.81;99566.31;4336042;33;33542;-73
2022/10/25 09:40:49;;;;;;;0.95;0.93;;;;;;;18.47;70.49;99578.72;4335956;33;34729;-73
2022/10/25 09:43:21;;;;;;;2.47;1.95;;;;;;;18.99;69.17;99573.13;4335783;33;35099;-72
2022/10/25 09:45:53;;;;;;;0.80;0.80;;;;;;;18.72;69.40;99578.59;4335880;33;35365;-72
2022/10/25 09:48:42;;;;;;;1.40;1.25;;;;;;;18.86;68.79;99578.06;4335406;33;34455;-73
2022/10/25 09:51:18;;;;;;;0.60;0.60;;;;;;;18.77;69.04;99574.84;4335919;33;34850;-72
2022/10/25 09:53:46;;;;;;;1.08;0.90;;;;;;;18.96;67.87;99576.75;4336014;33;35764;-72
2022/10/25 09:56:16;;;;;;;0.50;0.50;;;;;;;18.76;69.03;99583.69;4349112;33;34359;-73
2022/10/25 09:58:46;;;;;;;3.10;1.25;;;;;;;18.63;69.78;99584.25;4335984;33;33479;-73
2022/10/25 10:01:15;;;;;;;1.15;1.05;;;;;;;18.91;68.95;99586.66;4349126;33;33213;-73
2022/10/25 10:03:44;;;;;;;4.97;0.77;;;;;;;18.96;68.61;99589.09;4335880;33;35031;-72
2022/10/25 10:06:23;;;;;;;1.40;1.08;;;;;;;19.12;67.62;99590.19;4349041;33;34430;-73
2022/10/25 10:09:11;;;;;;;2.58;0.93;;;;;;;19.00;68.00;99585.41;4348866;33;34124;-73
2022/10/25 10:11:40;;;;;;;2.95;1.37;;;;;;;19.05;67.73;99583.44;4349002;33;33851;-72
2022/10/25 10:14:43;;;;;;;1.00;0.85;;;;;;;18.65;69.31;99580.59;4335654;33;35887;-72
2022/10/25 10:17:13;;;;;;;1.00;0.93;;;;;;;18.48;70.13;99578.66;4313495;33;35213;-73
2022/10/25 10:19:42;;;;;;;2.17;1.20;;;;;;;18.49;70.05;99579.50;4349020;33;33923;-73
2022/10/25 10:22:14;;;;;;;1.45;1.35;;;;;;;18.93;67.48;99571.59;4348833;33;34025;-73
2022/10/25 10:24:45;;;;;;;0.85;0.85;;;;;;;18.77;67.79;99574.84;4335812;33;35003;-73
2022/10/25 10:27:24;;;;;;;0.80;0.80;;;;;;;18.68;68.00;99575.22;4348865;33;33648;-72
2022/10/25 10:30:01;;;;;;;0.57;0.57;;;;;;;18.64;68.54;99573.63;4335688;33;34435;-73
2022/10/25 10:32:37;;;;;;;0.62;0.62;;;;;;;18.76;67.86;99577.56;4348819;33;34695;-72
2022/10/25 10:35:33;;;;;;;0.57;0.57;;;;;;;18.70;68.04;99589.19;4336140;33;35315;-71
2022/10/25 10:38:20;;;;;;;0.60;0.60;;;;;;;18.83;67.46;99578.19;4348760;33;34450;-72
2022/10/25 10:41:27;;;;;;;0.50;0.50;;;;;;;18.83;68.37;99572.91;4348843;33;33237;-73
2022/10/25 10:44:12;;;;;;;1.15;1.05;;;;;;;19.05;67.24;99578.16;4335694;33;34070;-73
2022/10/25 10:46:45;;;;;;;3.42;2.10;;;;;;;19.36;66.14;99587.41;4335430;33;36039;-72
2022/10/25 10:49:13;;;;;;;1.10;1.02;;;;;;;19.13;67.56;99584.84;4335465;33;34348;-73
2022/10/25 10:51:44;;;;;;;1.55;0.60;;;;;;;19.35;66.30;99583.91;4348670;33;34390;-72
2022/10/25 10:54:24;;;;;;;0.85;0.68;;;;;;;18.83;66.87;99583.44;4323294;33;33215;-72
2022/10/25 10:57:02;;;;;;;0.80;0.80;;;;;;;18.98;66.79;99600.47;4335465;33;36015;-73
2022/10/25 10:59:35;;;;;;;0.45;0.45;;;;;;;18.88;66.59;99597.31;4335330;33;34410;-73
2022/10/25 11:02:34;;;;;;;0.75;0.75;;;;;;;18.89;67.05;99594.63;4348614;33;33530;-73
2022/10/25 11:05:26;;;;;;;2.87;1.67;;;;;;;19.18;66.00;99594.34;4339516;33;33927;-73
2022/10/25 11:07:58;;;;;;;0.43;0.35;;;;;;;19.63;65.13;99590.66;4335363;33;35848;-72
2022/10/25 11:10:29;;;;;;;0.35;0.35;;;;;;;20.26;63.84;99588.69;4348520;33;34171;-73
2022/10/25 11:13:09;;;;;;;0.90;0.80;;;;;;;20.75;62.32;99582.00;4335373;33;33491;-73
2022/10/25 11:16:07;;;;;;;0.50;0.50;;;;;;;21.66;59.07;99585.41;4322949;33;33361;-74
2022/10/25 11:18:48;;;;;;;1.02;0.98;;;;;;;22.32;56.75;99580.09;4335289;33;35041;-73
2022/10/25 11:21:35;;;;;;;0.20;0.20;;;;;;;23.43;53.32;99580.81;4335378;33;34295;-74
2022/10/25 11:24:06;;;;;;;0.60;0.60;;;;;;;23.04;52.31;99583.06;4335261;33;33313;-73
2022/10/25 11:27:01;;;;;;;0.57;0.57;;;;;;;22.67;53.36;99579.03;4348447;33;33172;-73
2022/10/25 11:29:42;;;;;;;0.68;0.50;;;;;;;23.26;52.55;99587.16;4334983;33;35141;-74
2022/10/25 11:32:47;;;;;;;0.30;0.30;;;;;;;23.70;50.98;99582.75;4348319;33;35305;-73
2022/10/25 11:35:30;;;;;;;1.25;1.15;;;;;;;24.39;49.77;99582.00;4348345;33;33817;-73
2022/10/25 11:38:40;;;;;;;0.20;0.20;;;;;;;25.31;46.46;99582.25;4348316;33;34775;-74
2022/10/25 11:41:33;;;;;;;0.20;0.20;;;;;;;25.79;44.93;99578.97;4273283;33;35976;-72
2022/10/25 11:44:13;;;;;;;0.93;0.85;;;;;;;25.98;44.38;99575.84;4273364;33;35209;-74
2022/10/25 11:46:50;;;;;;;0.30;0.30;;;;;;;26.32;43.10;99562.78;4329075;33;33459;-74
2022/10/25 11:49:34;;;;;;;0.32;0.32;;;;;;;26.36;42.79;99567.78;4348173;33;33569;-73
2022/10/25 11:52:54;;;;;;;0.73;0.65;;;;;;;26.16;43.92;99563.88;4348127;33;35938;-72
2022/10/25 11:55:35;;;;;;;0.90;0.70;;;;;;;25.46;44.70;99564.34;4283767;33;34239;-73
2022/10/25 11:58:40;;;;;;;0.30;0.30;;;;;;;24.84;45.80;99567.59;4334820;33;33647;-74
2022/10/25 12:01:23;;;;;;;0.62;0.32;;;;;;;24.76;46.08;99566.31;4348052;33;34721;-74
2022/10/25 12:04:20;;;;;;;1.10;1.00;;;;;;;24.30;45.65;99573.72;4322472;33;34287;-73
2022/10/25 12:07:21;;;;;;;0.68;0.60;;;;;;;24.60;44.95;99568.25;4335335;33;35297;-74